sensor_id;sensor_type;location;lat;lon;timestamp;P1;durP1;ratioP1;P2;durP2;ratioP2
56680;SDS011;42558;52.388;13.390;2023-08-08T00:01:23;12.35;;;3.42;;
56680;SDS011;42558;52.388;13.390;2023-08-08T00:03:51;9.69;;;3.61;;
56680;SDS011;42558;52.388;13.390;2023-08-08T00:06:19;10.45;;;3.23;;
56680;SDS011;42558;52.388;13.390;2023-08-08T00:08:48;13.49;;;3.42;;
56680;SDS011;42558;52.388;13.390;2023-08-08T00:11:16;9.69;;;3.23;;
56680;SDS011;42558;52.388;13.390;2023-08-08T00:13:45;8.74;;;2.66;;
56680;SDS011;42558;52.388;13.390;2023-08-08T00:16:13;9.69;;;2.85;;
56680;SDS011;42558;52.388;13.390;2023-08-08T00:18:41;10.45;;;3.42;;
56680;SDS011;42558;52.388;13.390;2023-08-08T00:21:10;11.02;;;3.23;;
56680;SDS011;42558;52.388;13.390;2023-08-08T00:23:38;8.17;;;2.66;;
56680;SDS011;42558;52.388;13.390;2023-08-08T00:26:07;10.64;;;2.66;;
56680;SDS011;42558;52.388;13.390;2023-08-08T00:28:35;13.68;;;3.61;;
56680;SDS011;42558;52.388;13.390;2023-08-08T00:31:03;12.73;;;3.80;;
56680;SDS011;42558;52.388;13.390;2023-08-08T00:33:32;8.93;;;3.04;;
56680;SDS011;42558;52.388;13.390;2023-08-08T00:36:00;11.97;;;2.85;;
56680;SDS011;42558;52.388;13.390;2023-08-08T00:38:29;7.60;;;3.04;;
56680;SDS011;42558;52.388;13.390;2023-08-08T00:40:57;11.97;;;3.23;;
56680;SDS011;42558;52.388;13.390;2023-08-08T00:43:25;11.97;;;3.61;;
56680;SDS011;42558;52.388;13.390;2023-08-08T00:45:54;7.22;;;2.66;;
56680;SDS011;42558;52.388;13.390;2023-08-08T00:48:23;9.31;;;3.04;;
56680;SDS011;42558;52.388;13.390;2023-08-08T00:50:51;11.97;;;3.42;;
56680;SDS011;42558;52.388;13.390;2023-08-08T00:53:19;10.64;;;3.42;;
56680;SDS011;42558;52.388;13.390;2023-08-08T00:55:51;10.07;;;3.80;;
56680;SDS011;42558;52.388;13.390;2023-08-08T00:58:19;9.50;;;3.42;;
56680;SDS011;42558;52.388;13.390;2023-08-08T01:00:47;10.64;;;3.61;;
56680;SDS011;42558;52.388;13.390;2023-08-08T01:03:16;10.26;;;3.42;;
56680;SDS011;42558;52.388;13.390;2023-08-08T01:05:53;8.93;;;3.99;;
56680;SDS011;42558;52.388;13.390;2023-08-08T01:08:39;11.97;;;3.04;;
56680;SDS011;42558;52.388;13.390;2023-08-08T01:11:15;13.87;;;3.42;;
56680;SDS011;42558;52.388;13.390;2023-08-08T01:13:46;10.26;;;3.42;;
56680;SDS011;42558;52.388;13.390;2023-08-08T01:16:17;9.50;;;3.23;;
56680;SDS011;42558;52.388;13.390;2023-08-08T01:18:50;10.83;;;3.42;;
56680;SDS011;42558;52.388;13.390;2023-08-08T01:21:22;9.69;;;3.61;;
56680;SDS011;42558;52.388;13.390;2023-08-08T01:24:22;8.17;;;3.04;;
56680;SDS011;42558;52.388;13.390;2023-08-08T01:26:56;10.45;;;3.80;;
56680;SDS011;42558;52.388;13.390;2023-08-08T01:29:27;10.45;;;3.04;;
56680;SDS011;42558;52.388;13.390;2023-08-08T01:31:57;9.50;;;2.85;;
56680;SDS011;42558;52.388;13.390;2023-08-08T01:34:27;9.50;;;3.23;;
56680;SDS011;42558;52.388;13.390;2023-08-08T01:37:06;8.36;;;3.23;;
56680;SDS011;42558;52.388;13.390;2023-08-08T01:39:46;10.26;;;2.66;;
56680;SDS011;42558;52.388;13.390;2023-08-08T01:42:18;9.88;;;3.23;;
56680;SDS011;42558;52.388;13.390;2023-08-08T01:44:52;7.41;;;3.04;;
56680;SDS011;42558;52.388;13.390;2023-08-08T01:47:25;11.02;;;3.23;;
56680;SDS011;42558;52.388;13.390;2023-08-08T01:49:54;10.07;;;3.23;;
56680;SDS011;42558;52.388;13.390;2023-08-08T01:52:24;7.98;;;3.04;;
56680;SDS011;42558;52.388;13.390;2023-08-08T01:54:54;10.07;;;3.04;;
56680;SDS011;42558;52.388;13.390;2023-08-08T01:57:24;9.50;;;3.23;;
56680;SDS011;42558;52.388;13.390;2023-08-08T01:59:54;9.88;;;3.04;;
56680;SDS011;42558;52.388;13.390;2023-08-08T02:02:24;8.74;;;3.61;;
56680;SDS011;42558;52.388;13.390;2023-08-08T02:04:55;7.79;;;2.66;;
56680;SDS011;42558;52.388;13.390;2023-08-08T02:07:24;8.93;;;2.66;;
56680;SDS011;42558;52.388;13.390;2023-08-08T02:09:53;11.78;;;3.61;;
56680;SDS011;42558;52.388;13.390;2023-08-08T02:12:21;11.40;;;3.42;;
56680;SDS011;42558;52.388;13.390;2023-08-08T02:14:50;7.41;;;3.04;;
56680;SDS011;42558;52.388;13.390;2023-08-08T02:17:18;8.55;;;3.42;;
56680;SDS011;42558;52.388;13.390;2023-08-08T02:19:46;7.22;;;3.04;;
56680;SDS011;42558;52.388;13.390;2023-08-08T02:22:16;7.22;;;3.04;;
56680;SDS011;42558;52.388;13.390;2023-08-08T02:24:46;12.16;;;3.04;;
56680;SDS011;42558;52.388;13.390;2023-08-08T02:27:15;15.77;;;2.85;;
56680;SDS011;42558;52.388;13.390;2023-08-08T02:29:43;8.17;;;2.85;;
56680;SDS011;42558;52.388;13.390;2023-08-08T02:32:12;8.55;;;2.85;;
56680;SDS011;42558;52.388;13.390;2023-08-08T02:34:42;8.93;;;3.23;;
56680;SDS011;42558;52.388;13.390;2023-08-08T02:37:12;9.69;;;2.85;;
56680;SDS011;42558;52.388;13.390;2023-08-08T02:39:43;8.36;;;3.04;;
56680;SDS011;42558;52.388;13.390;2023-08-08T02:42:14;9.31;;;2.85;;
56680;SDS011;42558;52.388;13.390;2023-08-08T02:44:44;9.12;;;2.85;;
56680;SDS011;42558;52.388;13.390;2023-08-08T02:47:13;7.03;;;2.85;;
56680;SDS011;42558;52.388;13.390;2023-08-08T02:49:43;7.79;;;3.23;;
56680;SDS011;42558;52.388;13.390;2023-08-08T02:52:13;9.50;;;3.04;;
56680;SDS011;42558;52.388;13.390;2023-08-08T02:54:43;9.50;;;3.23;;
56680;SDS011;42558;52.388;13.390;2023-08-08T02:57:13;7.60;;;3.04;;
56680;SDS011;42558;52.388;13.390;2023-08-08T02:59:43;9.88;;;3.42;;
56680;SDS011;42558;52.388;13.390;2023-08-08T03:02:13;10.45;;;3.61;;
56680;SDS011;42558;52.388;13.390;2023-08-08T03:04:42;7.98;;;2.66;;
56680;SDS011;42558;52.388;13.390;2023-08-08T03:07:12;9.88;;;3.42;;
56680;SDS011;42558;52.388;13.390;2023-08-08T03:09:42;9.50;;;3.61;;
56680;SDS011;42558;52.388;13.390;2023-08-08T03:12:12;8.74;;;3.42;;
56680;SDS011;42558;52.388;13.390;2023-08-08T03:14:42;7.79;;;3.04;;
56680;SDS011;42558;52.388;13.390;2023-08-08T03:17:12;8.17;;;3.42;;
56680;SDS011;42558;52.388;13.390;2023-08-08T03:19:42;10.83;;;3.42;;
56680;SDS011;42558;52.388;13.390;2023-08-08T03:22:13;13.30;;;3.61;;
56680;SDS011;42558;52.388;13.390;2023-08-08T03:24:43;10.64;;;3.42;;
56680;SDS011;42558;52.388;13.390;2023-08-08T03:27:12;8.93;;;3.61;;
56680;SDS011;42558;52.388;13.390;2023-08-08T03:29:42;8.93;;;3.80;;
56680;SDS011;42558;52.388;13.390;2023-08-08T03:32:12;8.74;;;3.42;;
56680;SDS011;42558;52.388;13.390;2023-08-08T03:34:42;13.68;;;3.61;;
56680;SDS011;42558;52.388;13.390;2023-08-08T03:37:12;11.21;;;3.23;;
56680;SDS011;42558;52.388;13.390;2023-08-08T03:39:41;8.36;;;3.61;;
56680;SDS011;42558;52.388;13.390;2023-08-08T03:42:11;10.26;;;3.23;;
56680;SDS011;42558;52.388;13.390;2023-08-08T03:44:41;10.64;;;3.61;;
56680;SDS011;42558;52.388;13.390;2023-08-08T03:47:11;14.25;;;3.61;;
56680;SDS011;42558;52.388;13.390;2023-08-08T03:49:48;9.88;;;3.61;;
56680;SDS011;42558;52.388;13.390;2023-08-08T03:52:18;10.26;;;4.37;;
56680;SDS011;42558;52.388;13.390;2023-08-08T03:54:48;10.07;;;3.61;;
56680;SDS011;42558;52.388;13.390;2023-08-08T03:57:18;11.02;;;4.37;;
56680;SDS011;42558;52.388;13.390;2023-08-08T03:59:48;8.36;;;4.18;;
56680;SDS011;42558;52.388;13.390;2023-08-08T04:02:17;11.78;;;3.23;;
56680;SDS011;42558;52.388;13.390;2023-08-08T04:04:47;8.74;;;3.61;;
56680;SDS011;42558;52.388;13.390;2023-08-08T04:07:17;7.79;;;3.42;;
56680;SDS011;42558;52.388;13.390;2023-08-08T04:09:44;8.74;;;3.99;;
56680;SDS011;42558;52.388;13.390;2023-08-08T04:12:12;9.88;;;3.42;;
56680;SDS011;42558;52.388;13.390;2023-08-08T04:14:41;11.40;;;3.61;;
56680;SDS011;42558;52.388;13.390;2023-08-08T04:17:09;12.54;;;3.61;;
56680;SDS011;42558;52.388;13.390;2023-08-08T04:19:38;9.12;;;3.23;;
56680;SDS011;42558;52.388;13.390;2023-08-08T04:22:06;9.31;;;3.42;;
56680;SDS011;42558;52.388;13.390;2023-08-08T04:24:35;9.31;;;3.42;;
56680;SDS011;42558;52.388;13.390;2023-08-08T04:27:03;8.74;;;3.23;;
56680;SDS011;42558;52.388;13.390;2023-08-08T04:29:31;7.03;;;3.42;;
56680;SDS011;42558;52.388;13.390;2023-08-08T04:32:00;7.60;;;3.23;;
56680;SDS011;42558;52.388;13.390;2023-08-08T04:34:28;10.07;;;2.85;;
56680;SDS011;42558;52.388;13.390;2023-08-08T04:36:57;12.35;;;3.42;;
56680;SDS011;42558;52.388;13.390;2023-08-08T04:39:25;8.17;;;3.23;;
56680;SDS011;42558;52.388;13.390;2023-08-08T04:41:53;12.35;;;3.23;;
56680;SDS011;42558;52.388;13.390;2023-08-08T04:44:22;10.26;;;3.61;;
56680;SDS011;42558;52.388;13.390;2023-08-08T04:46:50;8.17;;;3.42;;
56680;SDS011;42558;52.388;13.390;2023-08-08T04:49:19;9.50;;;4.18;;
56680;SDS011;42558;52.388;13.390;2023-08-08T04:51:47;9.12;;;3.80;;
56680;SDS011;42558;52.388;13.390;2023-08-08T04:54:15;15.39;;;3.61;;
56680;SDS011;42558;52.388;13.390;2023-08-08T04:56:44;11.02;;;3.61;;
56680;SDS011;42558;52.388;13.390;2023-08-08T04:59:12;11.02;;;3.42;;
56680;SDS011;42558;52.388;13.390;2023-08-08T05:01:41;8.93;;;3.80;;
56680;SDS011;42558;52.388;13.390;2023-08-08T05:04:09;9.31;;;3.42;;
56680;SDS011;42558;52.388;13.390;2023-08-08T05:06:38;7.98;;;3.23;;
56680;SDS011;42558;52.388;13.390;2023-08-08T05:09:06;13.87;;;3.23;;
56680;SDS011;42558;52.388;13.390;2023-08-08T05:11:37;9.31;;;3.61;;
56680;SDS011;42558;52.388;13.390;2023-08-08T05:14:06;8.36;;;2.85;;
56680;SDS011;42558;52.388;13.390;2023-08-08T05:16:34;14.25;;;3.80;;
56680;SDS011;42558;52.388;13.390;2023-08-08T05:19:03;8.93;;;3.80;;
56680;SDS011;42558;52.388;13.390;2023-08-08T05:21:31;9.12;;;3.80;;
56680;SDS011;42558;52.388;13.390;2023-08-08T05:24:00;9.50;;;3.04;;
56680;SDS011;42558;52.388;13.390;2023-08-08T05:26:28;8.93;;;3.04;;
56680;SDS011;42558;52.388;13.390;2023-08-08T05:28:56;9.69;;;3.23;;
56680;SDS011;42558;52.388;13.390;2023-08-08T05:31:26;7.41;;;3.42;;
56680;SDS011;42558;52.388;13.390;2023-08-08T05:33:56;8.55;;;3.23;;
56680;SDS011;42558;52.388;13.390;2023-08-08T05:36:26;10.83;;;3.61;;
56680;SDS011;42558;52.388;13.390;2023-08-08T05:38:56;7.98;;;3.04;;
56680;SDS011;42558;52.388;13.390;2023-08-08T05:41:26;9.69;;;3.42;;
56680;SDS011;42558;52.388;13.390;2023-08-08T05:43:54;10.83;;;3.61;;
56680;SDS011;42558;52.388;13.390;2023-08-08T05:46:23;8.36;;;3.42;;
56680;SDS011;42558;52.388;13.390;2023-08-08T05:48:51;10.26;;;3.42;;
56680;SDS011;42558;52.388;13.390;2023-08-08T05:51:20;10.26;;;3.23;;
56680;SDS011;42558;52.388;13.390;2023-08-08T05:53:48;9.31;;;3.61;;
56680;SDS011;42558;52.388;13.390;2023-08-08T05:56:16;9.88;;;3.99;;
56680;SDS011;42558;52.388;13.390;2023-08-08T05:58:45;7.22;;;3.04;;
56680;SDS011;42558;52.388;13.390;2023-08-08T06:01:13;12.35;;;4.18;;
56680;SDS011;42558;52.388;13.390;2023-08-08T06:03:42;9.12;;;3.42;;
56680;SDS011;42558;52.388;13.390;2023-08-08T06:06:10;11.21;;;3.99;;
56680;SDS011;42558;52.388;13.390;2023-08-08T06:08:39;8.93;;;3.42;;
56680;SDS011;42558;52.388;13.390;2023-08-08T06:11:07;9.50;;;4.37;;
56680;SDS011;42558;52.388;13.390;2023-08-08T06:13:36;8.36;;;3.42;;
56680;SDS011;42558;52.388;13.390;2023-08-08T06:16:07;9.12;;;3.80;;
56680;SDS011;42558;52.388;13.390;2023-08-08T06:18:36;8.17;;;3.61;;
56680;SDS011;42558;52.388;13.390;2023-08-08T06:21:04;9.50;;;4.18;;
56680;SDS011;42558;52.388;13.390;2023-08-08T06:23:32;10.26;;;3.42;;
56680;SDS011;42558;52.388;13.390;2023-08-08T06:26:00;9.88;;;3.61;;
56680;SDS011;42558;52.388;13.390;2023-08-08T06:28:29;7.98;;;3.61;;
56680;SDS011;42558;52.388;13.390;2023-08-08T06:30:58;8.74;;;3.61;;
56680;SDS011;42558;52.388;13.390;2023-08-08T06:33:26;8.55;;;3.61;;
56680;SDS011;42558;52.388;13.390;2023-08-08T06:35:55;9.31;;;3.80;;
56680;SDS011;42558;52.388;13.390;2023-08-08T06:38:22;10.07;;;4.37;;
56680;SDS011;42558;52.388;13.390;2023-08-08T06:40:51;11.02;;;3.80;;
56680;SDS011;42558;52.388;13.390;2023-08-08T06:43:19;9.31;;;3.80;;
56680;SDS011;42558;52.388;13.390;2023-08-08T06:45:48;10.45;;;4.37;;
56680;SDS011;42558;52.388;13.390;2023-08-08T06:48:16;9.69;;;3.61;;
56680;SDS011;42558;52.388;13.390;2023-08-08T06:50:45;7.98;;;3.99;;
56680;SDS011;42558;52.388;13.390;2023-08-08T06:53:13;10.07;;;3.61;;
56680;SDS011;42558;52.388;13.390;2023-08-08T06:55:41;9.12;;;3.99;;
56680;SDS011;42558;52.388;13.390;2023-08-08T06:58:10;10.45;;;3.80;;
56680;SDS011;42558;52.388;13.390;2023-08-08T07:00:38;10.64;;;4.37;;
56680;SDS011;42558;52.388;13.390;2023-08-08T07:03:07;8.55;;;3.80;;
56680;SDS011;42558;52.388;13.390;2023-08-08T07:05:35;9.12;;;3.42;;
56680;SDS011;42558;52.388;13.390;2023-08-08T07:08:04;8.17;;;3.80;;
56680;SDS011;42558;52.388;13.390;2023-08-08T07:10:32;9.69;;;4.18;;
56680;SDS011;42558;52.388;13.390;2023-08-08T07:13:02;13.68;;;4.37;;
56680;SDS011;42558;52.388;13.390;2023-08-08T07:15:32;7.41;;;3.61;;
56680;SDS011;42558;52.388;13.390;2023-08-08T07:18:02;9.31;;;3.61;;
56680;SDS011;42558;52.388;13.390;2023-08-08T07:20:32;12.16;;;3.61;;
56680;SDS011;42558;52.388;13.390;2023-08-08T07:23:03;8.93;;;3.99;;
56680;SDS011;42558;52.388;13.390;2023-08-08T07:25:34;9.50;;;3.99;;
56680;SDS011;42558;52.388;13.390;2023-08-08T07:28:04;7.41;;;3.42;;
56680;SDS011;42558;52.388;13.390;2023-08-08T07:30:34;12.16;;;3.80;;
56680;SDS011;42558;52.388;13.390;2023-08-08T07:33:05;8.74;;;3.42;;
56680;SDS011;42558;52.388;13.390;2023-08-08T07:35:35;8.74;;;3.80;;
56680;SDS011;42558;52.388;13.390;2023-08-08T07:38:05;7.60;;;3.80;;
56680;SDS011;42558;52.388;13.390;2023-08-08T07:40:35;8.93;;;3.80;;
56680;SDS011;42558;52.388;13.390;2023-08-08T07:43:05;9.88;;;4.18;;
56680;SDS011;42558;52.388;13.390;2023-08-08T07:45:35;7.60;;;3.99;;
56680;SDS011;42558;52.388;13.390;2023-08-08T07:48:05;11.40;;;4.18;;
56680;SDS011;42558;52.388;13.390;2023-08-08T07:50:35;8.36;;;3.80;;
56680;SDS011;42558;52.388;13.390;2023-08-08T07:53:05;10.07;;;3.80;;
56680;SDS011;42558;52.388;13.390;2023-08-08T07:55:35;9.50;;;3.42;;
56680;SDS011;42558;52.388;13.390;2023-08-08T07:58:04;9.69;;;3.80;;
56680;SDS011;42558;52.388;13.390;2023-08-08T08:00:34;8.36;;;3.61;;
56680;SDS011;42558;52.388;13.390;2023-08-08T08:03:04;8.74;;;3.99;;
56680;SDS011;42558;52.388;13.390;2023-08-08T08:05:34;8.74;;;3.80;;
56680;SDS011;42558;52.388;13.390;2023-08-08T08:08:05;8.55;;;3.61;;
56680;SDS011;42558;52.388;13.390;2023-08-08T08:10:33;8.36;;;3.80;;
56680;SDS011;42558;52.388;13.390;2023-08-08T08:13:02;8.55;;;3.42;;
56680;SDS011;42558;52.388;13.390;2023-08-08T08:15:31;9.88;;;3.80;;
56680;SDS011;42558;52.388;13.390;2023-08-08T08:17:59;7.98;;;3.80;;
56680;SDS011;42558;52.388;13.390;2023-08-08T08:20:27;6.84;;;3.04;;
56680;SDS011;42558;52.388;13.390;2023-08-08T08:22:56;9.12;;;3.61;;
56680;SDS011;42558;52.388;13.390;2023-08-08T08:25:24;7.60;;;3.61;;
56680;SDS011;42558;52.388;13.390;2023-08-08T08:27:53;8.93;;;3.61;;
56680;SDS011;42558;52.388;13.390;2023-08-08T08:30:21;6.84;;;3.23;;
56680;SDS011;42558;52.388;13.390;2023-08-08T08:32:53;7.79;;;3.61;;
56680;SDS011;42558;52.388;13.390;2023-08-08T08:35:23;7.79;;;3.61;;
56680;SDS011;42558;52.388;13.390;2023-08-08T08:37:54;6.46;;;3.23;;
56680;SDS011;42558;52.388;13.390;2023-08-08T08:40:25;7.22;;;3.42;;
56680;SDS011;42558;52.388;13.390;2023-08-08T08:42:57;7.22;;;3.61;;
56680;SDS011;42558;52.388;13.390;2023-08-08T08:45:29;9.31;;;4.18;;
56680;SDS011;42558;52.388;13.390;2023-08-08T08:48:00;7.41;;;3.61;;
56680;SDS011;42558;52.388;13.390;2023-08-08T08:50:29;7.03;;;3.23;;
56680;SDS011;42558;52.388;13.390;2023-08-08T08:53:02;7.79;;;3.23;;
56680;SDS011;42558;52.388;13.390;2023-08-08T08:55:34;6.65;;;3.23;;
56680;SDS011;42558;52.388;13.390;2023-08-08T08:58:04;9.69;;;3.42;;
56680;SDS011;42558;52.388;13.390;2023-08-08T09:00:35;7.03;;;3.42;;
56680;SDS011;42558;52.388;13.390;2023-08-08T09:03:05;8.74;;;4.75;;
56680;SDS011;42558;52.388;13.390;2023-08-08T09:05:36;9.50;;;3.42;;
56680;SDS011;42558;52.388;13.390;2023-08-08T09:08:10;7.03;;;3.42;;
56680;SDS011;42558;52.388;13.390;2023-08-08T09:10:41;10.45;;;3.61;;
56680;SDS011;42558;52.388;13.390;2023-08-08T09:13:11;8.93;;;4.18;;
56680;SDS011;42558;52.388;13.390;2023-08-08T09:15:41;6.84;;;3.42;;
56680;SDS011;42558;52.388;13.390;2023-08-08T09:18:11;8.55;;;3.80;;
56680;SDS011;42558;52.388;13.390;2023-08-08T09:20:47;8.36;;;3.80;;
56680;SDS011;42558;52.388;13.390;2023-08-08T09:23:18;9.50;;;3.04;;
56680;SDS011;42558;52.388;13.390;2023-08-08T09:25:49;8.93;;;3.04;;
56680;SDS011;42558;52.388;13.390;2023-08-08T09:28:19;9.31;;;3.42;;
56680;SDS011;42558;52.388;13.390;2023-08-08T09:30:49;11.40;;;3.99;;
56680;SDS011;42558;52.388;13.390;2023-08-08T09:33:19;8.93;;;3.42;;
56680;SDS011;42558;52.388;13.390;2023-08-08T09:35:49;13.11;;;4.37;;
56680;SDS011;42558;52.388;13.390;2023-08-08T09:38:24;8.55;;;3.80;;
56680;SDS011;42558;52.388;13.390;2023-08-08T09:40:54;6.08;;;3.04;;
56680;SDS011;42558;52.388;13.390;2023-08-08T09:43:24;8.74;;;3.99;;
56680;SDS011;42558;52.388;13.390;2023-08-08T09:45:54;11.59;;;4.94;;
56680;SDS011;42558;52.388;13.390;2023-08-08T09:48:30;9.88;;;3.80;;
56680;SDS011;42558;52.388;13.390;2023-08-08T09:51:01;8.36;;;3.61;;
56680;SDS011;42558;52.388;13.390;2023-08-08T09:53:32;9.31;;;3.80;;
56680;SDS011;42558;52.388;13.390;2023-08-08T09:56:04;9.50;;;3.23;;
56680;SDS011;42558;52.388;13.390;2023-08-08T09:58:34;9.50;;;3.80;;
56680;SDS011;42558;52.388;13.390;2023-08-08T10:01:03;7.79;;;3.23;;
56680;SDS011;42558;52.388;13.390;2023-08-08T10:03:35;9.12;;;3.80;;
56680;SDS011;42558;52.388;13.390;2023-08-08T10:06:07;6.27;;;2.85;;
56680;SDS011;42558;52.388;13.390;2023-08-08T10:08:37;9.69;;;4.18;;
56680;SDS011;42558;52.388;13.390;2023-08-08T10:11:08;9.12;;;3.61;;
56680;SDS011;42558;52.388;13.390;2023-08-08T10:13:47;7.79;;;3.80;;
56680;SDS011;42558;52.388;13.390;2023-08-08T10:16:19;7.60;;;3.99;;
56680;SDS011;42558;52.388;13.390;2023-08-08T10:19:00;6.65;;;4.18;;
56680;SDS011;42558;52.388;13.390;2023-08-08T10:21:37;9.12;;;3.42;;
56680;SDS011;42558;52.388;13.390;2023-08-08T10:24:11;8.36;;;3.99;;
56680;SDS011;42558;52.388;13.390;2023-08-08T10:26:58;10.64;;;4.18;;
56680;SDS011;42558;52.388;13.390;2023-08-08T10:29:33;8.17;;;3.80;;
56680;SDS011;42558;52.388;13.390;2023-08-08T10:32:05;9.31;;;3.80;;
56680;SDS011;42558;52.388;13.390;2023-08-08T10:34:42;8.17;;;3.80;;
56680;SDS011;42558;52.388;13.390;2023-08-08T10:37:16;8.55;;;4.18;;
56680;SDS011;42558;52.388;13.390;2023-08-08T10:39:54;8.36;;;3.61;;
56680;SDS011;42558;52.388;13.390;2023-08-08T10:42:28;8.17;;;3.99;;
56680;SDS011;42558;52.388;13.390;2023-08-08T10:44:59;7.22;;;3.80;;
56680;SDS011;42558;52.388;13.390;2023-08-08T10:47:34;11.59;;;4.37;;
56680;SDS011;42558;52.388;13.390;2023-08-08T10:50:22;13.30;;;4.75;;
56680;SDS011;42558;52.388;13.390;2023-08-08T10:52:55;11.59;;;4.37;;
56680;SDS011;42558;52.388;13.390;2023-08-08T10:55:33;7.79;;;4.56;;
56680;SDS011;42558;52.388;13.390;2023-08-08T10:58:08;10.64;;;4.94;;
56680;SDS011;42558;52.388;13.390;2023-08-08T11:00:39;7.79;;;5.32;;
56680;SDS011;42558;52.388;13.390;2023-08-08T11:03:10;11.02;;;4.94;;
56680;SDS011;42558;52.388;13.390;2023-08-08T11:05:40;10.07;;;4.94;;
56680;SDS011;42558;52.388;13.390;2023-08-08T11:08:15;9.50;;;4.56;;
56680;SDS011;42558;52.388;13.390;2023-08-08T11:10:45;7.98;;;4.37;;
56680;SDS011;42558;52.388;13.390;2023-08-08T11:13:15;9.31;;;5.13;;
56680;SDS011;42558;52.388;13.390;2023-08-08T11:15:45;14.63;;;6.84;;
56680;SDS011;42558;52.388;13.390;2023-08-08T11:18:16;10.26;;;5.32;;
56680;SDS011;42558;52.388;13.390;2023-08-08T11:20:46;13.11;;;4.94;;
56680;SDS011;42558;52.388;13.390;2023-08-08T11:23:17;8.93;;;4.75;;
56680;SDS011;42558;52.388;13.390;2023-08-08T11:25:48;11.21;;;5.32;;
56680;SDS011;42558;52.388;13.390;2023-08-08T11:28:36;7.98;;;3.99;;
56680;SDS011;42558;52.388;13.390;2023-08-08T11:31:06;9.31;;;5.13;;
56680;SDS011;42558;52.388;13.390;2023-08-08T11:33:36;8.36;;;4.56;;
56680;SDS011;42558;52.388;13.390;2023-08-08T11:36:05;9.69;;;4.18;;
56680;SDS011;42558;52.388;13.390;2023-08-08T11:38:37;8.17;;;3.04;;
56680;SDS011;42558;52.388;13.390;2023-08-08T11:41:10;7.41;;;3.80;;
56680;SDS011;42558;52.388;13.390;2023-08-08T11:43:41;11.21;;;4.37;;
56680;SDS011;42558;52.388;13.390;2023-08-08T11:46:14;7.79;;;3.80;;
56680;SDS011;42558;52.388;13.390;2023-08-08T11:48:48;9.50;;;4.75;;
56680;SDS011;42558;52.388;13.390;2023-08-08T11:51:17;9.12;;;4.94;;
56680;SDS011;42558;52.388;13.390;2023-08-08T11:53:51;9.69;;;5.32;;
56680;SDS011;42558;52.388;13.390;2023-08-08T11:56:22;10.07;;;5.32;;
56680;SDS011;42558;52.388;13.390;2023-08-08T11:58:52;8.93;;;4.94;;
56680;SDS011;42558;52.388;13.390;2023-08-08T12:01:25;8.93;;;4.94;;
56680;SDS011;42558;52.388;13.390;2023-08-08T12:03:56;8.55;;;4.94;;
56680;SDS011;42558;52.388;13.390;2023-08-08T12:06:29;7.60;;;5.70;;
56680;SDS011;42558;52.388;13.390;2023-08-08T12:09:01;9.88;;;5.32;;
56680;SDS011;42558;52.388;13.390;2023-08-08T12:11:36;8.36;;;4.56;;
56680;SDS011;42558;52.388;13.390;2023-08-08T12:14:09;7.98;;;4.94;;
56680;SDS011;42558;52.388;13.390;2023-08-08T12:16:39;9.12;;;4.56;;
56680;SDS011;42558;52.388;13.390;2023-08-08T12:19:10;8.36;;;4.94;;
56680;SDS011;42558;52.388;13.390;2023-08-08T12:21:41;8.93;;;4.37;;
56680;SDS011;42558;52.388;13.390;2023-08-08T12:24:11;8.36;;;4.56;;
56680;SDS011;42558;52.388;13.390;2023-08-08T12:26:41;8.74;;;4.56;;
56680;SDS011;42558;52.388;13.390;2023-08-08T12:29:11;10.83;;;5.32;;
56680;SDS011;42558;52.388;13.390;2023-08-08T12:31:39;9.69;;;5.13;;
56680;SDS011;42558;52.388;13.390;2023-08-08T12:34:08;7.79;;;4.18;;
56680;SDS011;42558;52.388;13.390;2023-08-08T12:36:36;9.50;;;4.56;;
56680;SDS011;42558;52.388;13.390;2023-08-08T12:39:05;8.74;;;3.99;;
56680;SDS011;42558;52.388;13.390;2023-08-08T12:41:33;7.79;;;4.18;;
56680;SDS011;42558;52.388;13.390;2023-08-08T12:44:01;8.17;;;3.99;;
56680;SDS011;42558;52.388;13.390;2023-08-08T12:46:30;7.60;;;3.04;;
56680;SDS011;42558;52.388;13.390;2023-08-08T12:48:58;7.41;;;3.23;;
56680;SDS011;42558;52.388;13.390;2023-08-08T12:51:26;9.88;;;3.42;;
56680;SDS011;42558;52.388;13.390;2023-08-08T12:53:55;6.65;;;3.80;;
56680;SDS011;42558;52.388;13.390;2023-08-08T12:56:23;7.98;;;3.99;;
56680;SDS011;42558;52.388;13.390;2023-08-08T12:58:52;9.69;;;3.61;;
56680;SDS011;42558;52.388;13.390;2023-08-08T13:01:20;8.93;;;4.18;;
56680;SDS011;42558;52.388;13.390;2023-08-08T13:03:48;6.46;;;3.61;;
56680;SDS011;42558;52.388;13.390;2023-08-08T13:06:38;8.55;;;3.61;;
56680;SDS011;42558;52.388;13.390;2023-08-08T13:09:08;7.98;;;3.61;;
56680;SDS011;42558;52.388;13.390;2023-08-08T13:11:39;8.74;;;3.80;;
56680;SDS011;42558;52.388;13.390;2023-08-08T13:14:08;7.98;;;3.80;;
56680;SDS011;42558;52.388;13.390;2023-08-08T13:16:39;9.69;;;3.80;;
56680;SDS011;42558;52.388;13.390;2023-08-08T13:19:09;7.41;;;3.99;;
56680;SDS011;42558;52.388;13.390;2023-08-08T13:21:39;9.12;;;4.18;;
56680;SDS011;42558;52.388;13.390;2023-08-08T13:24:08;9.50;;;4.18;;
56680;SDS011;42558;52.388;13.390;2023-08-08T13:26:39;8.93;;;4.18;;
56680;SDS011;42558;52.388;13.390;2023-08-08T13:29:12;11.21;;;4.37;;
56680;SDS011;42558;52.388;13.390;2023-08-08T13:31:42;7.79;;;4.18;;
56680;SDS011;42558;52.388;13.390;2023-08-08T13:34:11;9.31;;;3.80;;
56680;SDS011;42558;52.388;13.390;2023-08-08T13:36:42;8.55;;;3.80;;
56680;SDS011;42558;52.388;13.390;2023-08-08T13:39:11;10.07;;;4.18;;
56680;SDS011;42558;52.388;13.390;2023-08-08T13:41:42;5.89;;;3.04;;
56680;SDS011;42558;52.388;13.390;2023-08-08T13:44:11;6.46;;;3.23;;
56680;SDS011;42558;52.388;13.390;2023-08-08T13:46:40;8.36;;;3.61;;
56680;SDS011;42558;52.388;13.390;2023-08-08T13:49:08;7.79;;;3.23;;
56680;SDS011;42558;52.388;13.390;2023-08-08T13:51:37;6.84;;;3.04;;
56680;SDS011;42558;52.388;13.390;2023-08-08T13:54:05;7.79;;;3.04;;
56680;SDS011;42558;52.388;13.390;2023-08-08T13:56:34;6.46;;;2.85;;
56680;SDS011;42558;52.388;13.390;2023-08-08T13:59:02;6.46;;;2.66;;
56680;SDS011;42558;52.388;13.390;2023-08-08T14:01:30;5.89;;;2.85;;
56680;SDS011;42558;52.388;13.390;2023-08-08T14:03:59;6.27;;;2.66;;
56680;SDS011;42558;52.388;13.390;2023-08-08T14:06:27;7.98;;;3.04;;
56680;SDS011;42558;52.388;13.390;2023-08-08T14:08:56;8.36;;;2.85;;
56680;SDS011;42558;52.388;13.390;2023-08-08T14:11:24;7.22;;;3.04;;
56680;SDS011;42558;52.388;13.390;2023-08-08T14:13:53;8.93;;;2.85;;
56680;SDS011;42558;52.388;13.390;2023-08-08T14:16:21;6.84;;;2.85;;
56680;SDS011;42558;52.388;13.390;2023-08-08T14:18:49;7.60;;;2.85;;
56680;SDS011;42558;52.388;13.390;2023-08-08T14:21:18;7.98;;;3.42;;
56680;SDS011;42558;52.388;13.390;2023-08-08T14:23:46;7.03;;;3.61;;
56680;SDS011;42558;52.388;13.390;2023-08-08T14:26:15;6.84;;;3.23;;
56680;SDS011;42558;52.388;13.390;2023-08-08T14:28:43;6.84;;;3.61;;
56680;SDS011;42558;52.388;13.390;2023-08-08T14:31:12;8.55;;;3.23;;
56680;SDS011;42558;52.388;13.390;2023-08-08T14:33:40;8.36;;;3.80;;
56680;SDS011;42558;52.388;13.390;2023-08-08T14:36:09;6.65;;;3.23;;
56680;SDS011;42558;52.388;13.390;2023-08-08T14:38:37;7.22;;;3.80;;
56680;SDS011;42558;52.388;13.390;2023-08-08T14:41:05;6.65;;;3.23;;
56680;SDS011;42558;52.388;13.390;2023-08-08T14:43:34;9.50;;;3.99;;
56680;SDS011;42558;52.388;13.390;2023-08-08T14:46:02;7.22;;;3.99;;
56680;SDS011;42558;52.388;13.390;2023-08-08T14:48:31;6.84;;;3.61;;